Time;durP1;ratioP1;P1;durP2;ratioP2;P2;SDS_P1;SDS_P2;PMS_P1;PMS_P2;Temp;Humidity;BMP_temperature;BMP_pressure;BME280_temperature;BME280_humidity;BME280_pressure;Samples;Min_cycle;Max_cycle;Signal;HPM_P1;HPM_P2
2021/08/28 00:01:35;;;;;;;4.40;3.55;;;;;;;17.76;72.63;101540.28;6189925;28;20576;-53
2021/08/28 00:04:58;;;;;;;5.10;3.38;;;;;;;17.78;72.33;101543.75;6193711;28;20329;-50
2021/08/28 00:08:19;;;;;;;5.15;4.68;;;;;;;18.00;71.75;101541.41;6182993;28;20260;-50
2021/08/28 00:11:40;;;;;;;5.55;5.05;;;;;;;17.92;71.92;101534.63;6196429;28;20230;-49
2021/08/28 00:15:01;;;;;;;5.00;4.60;;;;;;;17.76;72.74;101537.66;6194579;28;20332;-49
2021/08/28 00:18:22;;;;;;;4.35;3.95;;;;;;;17.85;72.53;101542.69;6186438;28;20237;-50
2021/08/28 00:21:44;;;;;;;4.50;4.10;;;;;;;17.96;71.97;101536.28;6178607;28;20244;-52
2021/08/28 00:25:07;;;;;;;5.95;5.35;;;;;;;17.89;72.42;101536.44;6186290;28;20230;-47
2021/08/28 00:28:27;;;;;;;7.93;6.40;;;;;;;17.99;72.06;101541.44;6186933;28;20225;-48
2021/08/28 00:31:48;;;;;;;4.35;3.95;;;;;;;17.80;72.33;101533.19;6189114;28;20261;-51
2021/08/28 00:35:10;;;;;;;3.67;3.38;;;;;;;17.83;72.06;101536.56;6177443;28;20242;-53
2021/08/28 00:38:32;;;;;;;4.32;3.92;;;;;;;17.83;72.46;101541.84;6190245;28;20254;-51
2021/08/28 00:41:53;;;;;;;6.72;3.80;;;;;;;18.06;71.18;101545.63;6188768;28;20230;-49
2021/08/28 00:45:14;;;;;;;4.70;4.30;;;;;;;18.12;71.06;101548.09;6190078;28;20242;-52
2021/08/28 00:48:36;;;;;;;4.35;3.95;;;;;;;18.13;70.83;101544.56;6182981;28;20261;-49
2021/08/28 00:51:56;;;;;;;5.38;4.82;;;;;;;18.08;71.04;101542.03;6172585;28;20231;-51
2021/08/28 00:55:19;;;;;;;3.90;3.45;;;;;;;18.18;70.15;101547.91;6157828;28;20258;-49
2021/08/28 00:58:39;;;;;;;6.32;5.72;;;;;;;18.01;71.14;101550.16;6161582;28;20620;-48
2021/08/28 01:02:01;;;;;;;5.70;5.03;;;;;;;18.13;70.59;101544.56;6168764;28;20542;-50
2021/08/28 01:05:26;;;;;;;4.22;3.83;;;;;;;18.00;71.36;101544.03;6172058;28;21095;-51
2021/08/28 01:08:54;;;;;;;4.28;3.97;;;;;;;18.10;71.02;101552.53;6187187;28;20230;-52
2021/08/28 01:12:38;;;;;;;6.03;5.50;;;;;;;17.97;71.28;101549.41;6192944;28;20516;-49
2021/08/28 01:16:06;;;;;;;5.00;4.50;;;;;;;17.92;71.46;101556.56;6174808;28;20233;-47
2021/08/28 01:19:39;;;;;;;4.93;4.53;;;;;;;17.90;71.64;101559.25;6172026;28;20278;-52
2021/08/28 01:23:05;;;;;;;7.50;6.73;;;;;;;18.03;71.11;101559.78;6175118;28;20591;-48
2021/08/28 01:26:55;;;;;;;6.35;5.75;;;;;;;17.94;71.57;101556.53;6195177;28;20230;-53
2021/08/28 01:30:17;;;;;;;4.97;4.47;;;;;;;17.86;71.69;101557.59;6184119;28;20602;-52
2021/08/28 01:33:40;;;;;;;5.25;4.70;;;;;;;17.82;71.56;101555.94;6194937;28;20576;-50
2021/08/28 01:37:05;;;;;;;7.20;6.07;;;;;;;17.77;71.80;101556.97;6172742;28;20352;-52
2021/08/28 01:40:44;;;;;;;4.13;3.53;;;;;;;17.85;71.79;101555.84;6190507;28;20245;-49
2021/08/28 01:44:09;;;;;;;6.30;5.47;;;;;;;17.85;71.36;101558.50;6169945;28;20785;-49
2021/08/28 01:47:32;;;;;;;2.83;2.63;;;;;;;17.84;70.72;101556.78;6171844;28;20563;-50
2021/08/28 01:50:55;;;;;;;2.72;2.53;;;;;;;17.67;70.78;101556.34;6185796;28;20235;-52
2021/08/28 01:54:20;;;;;;;2.08;1.92;;;;;;;17.52;71.33;101573.41;6181408;28;20745;-48
2021/08/28 01:57:44;;;;;;;2.50;1.80;;;;;;;17.46;71.67;101569.16;6172584;28;20490;-48
2021/08/28 02:01:34;;;;;;;1.83;1.70;;;;;;;17.34;71.91;101566.84;6154642;28;20230;-49
2021/08/28 02:04:57;;;;;;;1.48;1.38;;;;;;;17.25;72.40;101572.34;6187811;28;20226;-49
2021/08/28 02:08:27;;;;;;;3.78;3.42;;;;;;;17.21;72.29;101570.69;6179270;28;20222;-49
2021/08/28 02:11:55;;;;;;;2.43;2.23;;;;;;;17.25;72.04;101574.97;6187096;28;20241;-51
2021/08/28 02:15:22;;;;;;;1.50;1.40;;;;;;;17.40;71.45;101568.47;6181677;28;20225;-48
2021/08/28 02:18:49;;;;;;;5.80;5.20;;;;;;;17.28;71.43;101567.88;6175132;28;20226;-51
2021/08/28 02:22:41;;;;;;;3.13;2.90;;;;;;;17.21;71.78;101560.16;6186823;28;20238;-51
2021/08/28 02:26:35;;;;;;;5.20;4.07;;;;;;;17.29;71.35;101566.97;6191908;28;20234;-47
2021/08/28 02:29:58;;;;;;;3.38;2.08;;;;;;;17.25;71.03;101567.06;6176223;28;20237;-50
2021/08/28 02:33:20;;;;;;;1.30;1.20;;;;;;;17.15;71.29;101568.22;6168405;28;20225;-54
2021/08/28 02:36:48;;;;;;;1.70;1.60;;;;;;;16.89;72.92;101564.44;6172662;28;20268;-50
2021/08/28 02:40:15;;;;;;;1.67;1.17;;;;;;;17.04;72.50;101565.81;6166558;28;20620;-52
2021/08/28 02:43:37;;;;;;;4.75;4.28;;;;;;;17.09;72.15;101575.34;6188951;28;20222;-53
2021/08/28 02:47:00;;;;;;;6.00;5.45;;;;;;;16.92;72.97;101569.63;6155033;28;20618;-49
2021/08/28 02:50:25;;;;;;;3.73;2.33;;;;;;;17.12;72.10;101567.38;6172197;28;20585;-47
2021/08/28 02:53:48;;;;;;;1.85;1.50;;;;;;;17.13;72.27;101557.72;6176785;28;20671;-52
2021/08/28 02:57:13;;;;;;;2.13;2.03;;;;;;;17.20;71.98;101558.44;6182397;28;20237;-52
2021/08/28 03:00:36;;;;;;;3.27;1.70;;;;;;;17.01;72.89;101561.50;6182655;28;20230;-48
2021/08/28 03:03:58;;;;;;;2.60;2.03;;;;;;;17.01;72.99;101556.25;6169449;28;20231;-52
2021/08/28 03:07:19;;;;;;;4.97;4.47;;;;;;;16.89;73.57;101561.81;6168315;28;20253;-48
2021/08/28 03:10:41;;;;;;;5.23;4.73;;;;;;;16.79;73.81;101570.75;6170406;28;20230;-49
2021/08/28 03:14:04;;;;;;;5.73;5.23;;;;;;;16.86;73.67;101567.13;6186535;28;20241;-47
2021/08/28 03:17:28;;;;;;;4.07;3.67;;;;;;;16.91;73.63;101565.28;6178093;28;20230;-50
2021/08/28 03:20:53;;;;;;;3.77;2.53;;;;;;;17.06;73.18;101569.28;6167311;28;20226;-47
2021/08/28 03:24:15;;;;;;;2.33;2.17;;;;;;;17.18;72.48;101565.53;6185648;28;20246;-51
2021/08/28 03:27:37;;;;;;;2.20;2.00;;;;;;;17.09;72.73;101567.44;6154401;28;20226;-50
2021/08/28 03:31:00;;;;;;;3.70;3.40;;;;;;;17.11;72.62;101575.31;6182374;28;20230;-49
2021/08/28 03:34:23;;;;;;;3.20;3.00;;;;;;;17.03;72.80;101585.16;6188738;28;20249;-53
2021/08/28 03:37:44;;;;;;;4.80;4.40;;;;;;;17.12;72.72;101585.81;6174065;28;20555;-52
2021/08/28 03:41:09;;;;;;;4.53;3.93;;;;;;;17.14;72.80;101577.88;6172097;28;20506;-52
2021/08/28 03:44:30;;;;;;;5.30;4.90;;;;;;;16.95;73.66;101580.09;6176579;28;20221;-50
2021/08/28 03:47:53;;;;;;;3.83;3.50;;;;;;;17.19;73.02;101585.66;6177099;28;20249;-51
2021/08/28 03:51:15;;;;;;;2.90;2.63;;;;;;;16.93;73.91;101584.53;6172835;28;20595;-53
2021/08/28 03:54:36;;;;;;;3.23;2.93;;;;;;;17.08;73.46;101583.31;6177800;28;20516;-54
2021/08/28 03:57:57;;;;;;;3.13;2.93;;;;;;;17.13;73.14;101587.53;6162620;28;20254;-50
2021/08/28 04:01:20;;;;;;;2.30;2.10;;;;;;;17.10;73.16;101576.22;6171523;28;20228;-49
2021/08/28 04:04:43;;;;;;;3.95;3.47;;;;;;;17.28;72.75;101580.16;6179809;28;20320;-46
2021/08/28 04:08:05;;;;;;;5.82;4.75;;;;;;;17.21;72.55;101589.13;6175364;28;20237;-50
2021/08/28 04:11:30;;;;;;;3.37;3.00;;;;;;;16.99;73.06;101591.41;6197793;28;20240;-52
2021/08/28 04:14:51;;;;;;;2.72;2.53;;;;;;;17.03;73.23;101593.91;6188121;28;20594;-51
2021/08/28 04:18:13;;;;;;;3.10;2.90;;;;;;;17.04;73.02;101603.56;6170395;28;20226;-49
2021/08/28 04:21:40;;;;;;;2.20;2.00;;;;;;;17.12;72.92;101606.00;6183435;28;20230;-52
2021/08/28 04:25:05;;;;;;;2.40;2.20;;;;;;;17.05;73.17;101604.41;6171927;28;20241;-52
2021/08/28 04:28:55;;;;;;;3.30;3.00;;;;;;;16.99;73.70;101602.78;6177005;28;20875;-47
2021/08/28 04:32:18;;;;;;;2.93;2.30;;;;;;;17.01;73.61;101600.97;6188577;28;20682;-47
2021/08/28 04:35:39;;;;;;;2.40;2.20;;;;;;;16.90;73.99;101600.38;6176509;28;20221;-49
2021/08/28 04:39:01;;;;;;;2.00;1.90;;;;;;;17.06;73.63;101592.97;6175116;28;20693;-49
2021/08/28 04:42:22;;;;;;;3.73;3.33;;;;;;;17.15;73.24;101597.16;6186037;28;20230;-49
2021/08/28 04:45:43;;;;;;;2.93;2.70;;;;;;;17.19;72.62;101598.81;6176429;28;20225;-49
2021/08/28 04:49:19;;;;;;;5.27;2.70;;;;;;;17.06;73.52;101608.75;6175405;28;20233;-48
2021/08/28 04:52:55;;;;;;;2.53;2.33;;;;;;;17.10;72.88;101603.41;6182134;28;20747;-50
2021/08/28 04:56:21;;;;;;;2.70;2.20;;;;;;;17.11;73.16;101610.38;6191701;28;20245;-47
2021/08/28 04:59:42;;;;;;;2.90;2.70;;;;;;;17.12;72.64;101606.88;6194700;28;20229;-48
2021/08/28 05:03:22;;;;;;;3.57;2.60;;;;;;;17.24;72.33;101610.09;6181760;28;20238;-50
2021/08/28 05:06:44;;;;;;;3.40;3.10;;;;;;;17.10;72.60;101606.03;6158192;28;20958;-51
2021/08/28 05:10:09;;;;;;;2.90;2.70;;;;;;;17.02;73.35;101604.47;6167994;28;20531;-47
2021/08/28 05:13:33;;;;;;;2.73;2.53;;;;;;;16.96;73.40;101610.75;6170624;28;20222;-49
2021/08/28 05:16:55;;;;;;;3.43;3.13;;;;;;;16.88;73.78;101615.31;6175049;28;20233;-50
2021/08/28 05:20:30;;;;;;;4.77;3.87;;;;;;;16.89;73.92;101615.28;6150506;28;20595;-49
2021/08/28 05:24:10;;;;;;;3.87;3.57;;;;;;;16.97;74.08;101617.75;6176381;28;20225;-46
2021/08/28 05:27:39;;;;;;;7.07;6.03;;;;;;;16.90;74.91;101610.88;6172506;28;20230;-49
2021/08/28 05:31:01;;;;;;;4.67;4.27;;;;;;;16.95;74.18;101614.28;6162841;28;20514;-50
2021/08/28 05:34:23;;;;;;;6.93;6.33;;;;;;;16.96;74.36;101616.00;6175926;28;20233;-49
2021/08/28 05:38:19;;;;;;;6.17;5.60;;;;;;;16.93;74.92;101616.09;6164741;28;20262;-52
2021/08/28 05:41:41;;;;;;;6.67;6.07;;;;;;;17.15;74.41;101612.94;6189078;28;20866;-51
2021/08/28 05:45:03;;;;;;;7.30;6.60;;;;;;;16.94;75.07;101617.81;6185326;28;20238;-49
2021/08/28 05:48:25;;;;;;;8.85;7.95;;;;;;;17.14;74.70;101614.72;6173225;28;20233;-48
2021/08/28 05:51:46;;;;;;;7.90;7.18;;;;;;;17.11;75.09;101617.41;6188780;28;20502;-47
2021/08/28 05:55:10;;;;;;;8.10;7.30;;;;;;;17.03;75.42;101622.88;6191358;28;20738;-52
2021/08/28 05:58:33;;;;;;;8.52;6.97;;;;;;;17.00;75.36;101622.06;6172891;28;20227;-52
2021/08/28 06:01:55;;;;;;;9.83;8.83;;;;;;;17.01;75.22;101622.03;6153517;28;20231;-47
2021/08/28 06:05:18;;;;;;;8.95;8.13;;;;;;;17.28;74.66;101632.81;6170840;28;20230;-49
2021/08/28 06:08:58;;;;;;;10.57;9.48;;;;;;;17.37;73.86;101627.34;6191625;28;20238;-50
2021/08/28 06:12:38;;;;;;;8.77;7.88;;;;;;;17.45;74.04;101630.63;6193099;28;20226;-49
2021/08/28 06:16:17;;;;;;;10.80;8.48;;;;;;;17.40;74.14;101623.75;6193105;28;20498;-55
2021/08/28 06:19:38;;;;;;;8.63;7.82;;;;;;;17.31;74.05;101617.81;6184213;28;20226;-49
2021/08/28 06:23:01;;;;;;;10.05;9.02;;;;;;;17.48;73.86;101625.28;6177518;28;20249;-54
2021/08/28 06:26:25;;;;;;;11.30;10.18;;;;;;;17.66;73.30;101617.81;6179245;28;20336;-50
2021/08/28 06:29:46;;;;;;;9.13;8.20;;;;;;;17.71;73.21;101618.56;6153740;28;20617;-50
2021/08/28 06:33:08;;;;;;;11.73;10.10;;;;;;;17.78;72.79;101619.28;6174299;28;20262;-49
2021/08/28 06:36:31;;;;;;;9.05;8.25;;;;;;;18.02;72.21;101629.19;6184909;28;20257;-52
2021/08/28 06:39:59;;;;;;;8.30;7.55;;;;;;;17.92;72.71;101632.13;6176476;28;20234;-49
2021/08/28 06:43:52;;;;;;;8.77;7.97;;;;;;;18.01;72.15;101630.09;6178044;28;20245;-53
2021/08/28 06:47:45;;;;;;;8.57;7.73;;;;;;;18.01;72.28;101629.22;6186095;28;20584;-49
2021/08/28 06:51:25;;;;;;;7.07;6.47;;;;;;;17.98;72.63;101635.44;6164769;28;20237;-52
2021/08/28 06:55:08;;;;;;;8.32;7.63;;;;;;;17.93;72.84;101631.19;6174353;28;20888;-52
2021/08/28 06:58:48;;;;;;;6.95;6.35;;;;;;;17.99;72.69;101628.41;6182213;28;20598;-51
2021/08/28 07:02:29;;;;;;;6.70;6.10;;;;;;;18.21;71.69;101626.06;6188159;28;20226;-48
2021/08/28 07:05:57;;;;;;;7.60;6.80;;;;;;;18.44;71.65;101628.91;6176213;28;21746;-49
2021/08/28 07:09:20;;;;;;;7.93;7.17;;;;;;;18.50;71.12;101638.41;6171632;28;20233;-47
2021/08/28 07:12:42;;;;;;;8.65;7.78;;;;;;;18.52;70.79;101626.03;6173342;28;20227;-47
2021/08/28 07:16:03;;;;;;;7.72;6.57;;;;;;;18.37;71.42;101631.75;6150214;28;20266;-47
2021/08/28 07:19:24;;;;;;;7.15;6.32;;;;;;;18.19;72.16;101633.16;6165031;28;20820;-53
2021/08/28 07:22:44;;;;;;;8.85;6.65;;;;;;;18.30;71.51;101642.47;6170033;28;20234;-49
2021/08/28 07:26:32;;;;;;;7.10;6.50;;;;;;;18.14;72.41;101633.25;6189151;28;20272;-49
2021/08/28 07:30:32;;;;;;;6.38;5.75;;;;;;;18.12;72.72;101639.47;6143432;28;20242;-53
2021/08/28 07:33:53;;;;;;;9.90;7.78;;;;;;;18.38;72.14;101639.63;6139416;28;20234;-48
2021/08/28 07:37:15;;;;;;;7.35;6.63;;;;;;;18.46;71.63;101647.31;6172486;28;20333;-48
2021/08/28 07:40:36;;;;;;;7.13;5.28;;;;;;;18.48;71.59;101648.13;6188118;28;20223;-48
2021/08/28 07:43:57;;;;;;;5.85;5.43;;;;;;;18.46;71.26;101653.44;6170804;28;20234;-51
2021/08/28 07:47:20;;;;;;;8.55;5.82;;;;;;;18.63;71.01;101639.78;6172185;28;20233;-52
2021/08/28 07:50:41;;;;;;;5.93;4.97;;;;;;;18.67;70.78;101651.97;6181770;28;20349;-54
2021/08/28 07:54:02;;;;;;;5.20;4.80;;;;;;;18.72;70.20;101653.59;6173450;28;20635;-45
2021/08/28 07:57:23;;;;;;;5.90;5.40;;;;;;;18.91;69.72;101652.16;6164312;28;20233;-48
2021/08/28 08:00:44;;;;;;;7.18;5.28;;;;;;;18.95;70.01;101651.16;6169341;28;20929;-50
2021/08/28 08:04:07;;;;;;;4.50;4.10;;;;;;;19.10;69.51;101652.47;6181366;28;20237;-53
2021/08/28 08:07:46;;;;;;;5.72;5.22;;;;;;;19.10;69.76;101648.97;6182037;28;20242;-52
2021/08/28 08:11:26;;;;;;;5.28;4.88;;;;;;;19.18;69.36;101645.16;6169468;28;20230;-51
2021/08/28 08:15:06;;;;;;;6.53;4.55;;;;;;;19.05;69.76;101649.09;6182325;28;20245;-52
2021/08/28 08:18:53;;;;;;;6.63;4.88;;;;;;;18.92;70.12;101646.00;6159783;28;20238;-49
2021/08/28 08:22:34;;;;;;;8.75;8.05;;;;;;;18.87;70.01;101645.25;6177024;28;20655;-54
2021/08/28 08:26:22;;;;;;;6.50;4.88;;;;;;;18.86;70.66;101654.06;6163105;28;20272;-49
2021/08/28 08:30:01;;;;;;;4.38;3.97;;;;;;;18.66;70.86;101659.91;6165761;28;20615;-47
2021/08/28 08:33:42;;;;;;;5.53;4.85;;;;;;;18.68;71.39;101648.41;6163710;28;20495;-54
2021/08/28 08:37:07;;;;;;;5.18;3.65;;;;;;;19.19;69.07;101654.81;6151612;28;20237;-50
2021/08/28 08:40:30;;;;;;;4.50;4.10;;;;;;;19.48;68.36;101667.06;6162432;28;20603;-53
2021/08/28 08:43:53;;;;;;;4.05;3.63;;;;;;;19.95;66.62;101665.53;6190102;28;20947;-50
2021/08/28 08:47:15;;;;;;;5.55;4.15;;;;;;;20.38;64.82;101653.44;6178236;28;20238;-49
2021/08/28 08:50:36;;;;;;;5.18;4.68;;;;;;;20.05;65.53;101662.53;6166211;28;20615;-51
2021/08/28 08:53:58;;;;;;;4.38;3.70;;;;;;;20.15;65.33;101668.34;6165378;28;20250;-50
2021/08/28 08:57:20;;;;;;;4.68;4.18;;;;;;;20.09;65.93;101667.72;6192187;28;20493;-48
2021/08/28 09:00:41;;;;;;;3.65;3.35;;;;;;;19.96;66.20;101668.13;6173406;28;20309;-50
2021/08/28 09:04:20;;;;;;;4.07;3.22;;;;;;;19.86;66.39;101664.09;6180580;28;20336;-51
2021/08/28 09:07:41;;;;;;;3.30;3.05;;;;;;;19.77;66.79;101665.25;6185229;28;20230;-52
2021/08/28 09:11:02;;;;;;;3.00;2.70;;;;;;;19.47;67.92;101669.75;6184065;28;20241;-53
2021/08/28 09:14:24;;;;;;;3.72;2.90;;;;;;;19.77;67.31;101672.31;6185796;28;20237;-51
2021/08/28 09:17:58;;;;;;;2.97;2.42;;;;;;;20.53;65.51;101666.09;6179745;28;20269;-50
2021/08/28 09:21:21;;;;;;;2.97;2.78;;;;;;;20.75;64.54;101673.25;6183991;28;20573;-46
2021/08/28 09:24:44;;;;;;;2.53;1.90;;;;;;;21.01;63.70;101670.47;6181590;28;20213;-47
2021/08/28 09:28:05;;;;;;;2.58;2.38;;;;;;;20.95;63.41;101668.03;6185181;28;20245;-48
2021/08/28 09:31:42;;;;;;;2.28;1.98;;;;;;;20.98;63.14;101662.63;6189306;28;20253;-48
2021/08/28 09:35:09;;;;;;;2.60;2.35;;;;;;;20.60;64.47;101672.91;6176402;28;20222;-53
2021/08/28 09:38:38;;;;;;;2.22;1.83;;;;;;;20.36;65.42;101673.78;6188953;28;20229;-50
2021/08/28 09:41:59;;;;;;;2.90;1.10;;;;;;;20.52;65.30;101669.66;6188009;28;20222;-46
2021/08/28 09:45:22;;;;;;;1.77;1.67;;;;;;;21.34;62.83;101658.56;6192134;28;20229;-54
2021/08/28 09:49:00;;;;;;;2.53;2.13;;;;;;;21.92;61.25;101669.41;6187342;28;20230;-49
2021/08/28 09:52:23;;;;;;;2.53;2.05;;;;;;;21.55;61.13;101670.09;6190054;28;20557;-52
2021/08/28 09:55:45;;;;;;;2.50;2.30;;;;;;;21.61;61.39;101669.84;6186255;28;20611;-51
2021/08/28 09:59:18;;;;;;;2.75;2.00;;;;;;;21.26;61.58;101674.78;6181407;28;20230;-52
2021/08/28 10:02:39;;;;;;;3.20;1.98;;;;;;;21.01;62.52;101673.13;6186832;28;20229;-55
2021/08/28 10:06:01;;;;;;;1.83;1.73;;;;;;;21.19;62.00;101667.97;6178858;28;20226;-52
2021/08/28 10:09:23;;;;;;;4.03;3.63;;;;;;;20.97;62.25;101673.28;6190573;28;20320;-52
2021/08/28 10:12:46;;;;;;;2.70;2.50;;;;;;;21.00;62.05;101679.31;6187963;28;20316;-53
2021/08/28 10:16:07;;;;;;;2.10;1.90;;;;;;;20.46;63.64;101670.75;6189865;28;20226;-52
2021/08/28 10:19:28;;;;;;;3.55;2.80;;;;;;;20.32;64.19;101672.19;6188262;28;20616;-50
2021/08/28 10:22:54;;;;;;;3.75;2.80;;;;;;;20.21;65.18;101677.84;6183018;28;20226;-51
2021/08/28 10:26:16;;;;;;;2.63;2.42;;;;;;;20.05;65.58;101685.47;6169746;28;20226;-54
2021/08/28 10:29:37;;;;;;;4.35;3.45;;;;;;;20.49;64.30;101679.47;6189604;28;20233;-49
2021/08/28 10:32:58;;;;;;;2.17;1.75;;;;;;;21.27;62.17;101676.50;6188268;28;20242;-52
2021/08/28 10:36:19;;;;;;;3.22;1.63;;;;;;;21.32;61.61;101674.50;6185704;28;20250;-54
2021/08/28 10:39:42;;;;;;;2.22;1.95;;;;;;;21.29;62.17;101684.41;6178760;28;20230;-46
2021/08/28 10:43:06;;;;;;;2.38;2.15;;;;;;;21.48;61.24;101674.81;6191015;28;20245;-48
2021/08/28 10:46:30;;;;;;;4.50;3.17;;;;;;;21.39;61.72;101681.31;6186809;28;20234;-49
2021/08/28 10:50:06;;;;;;;3.28;2.97;;;;;;;21.69;60.37;101678.31;6151492;28;20234;-50
2021/08/28 10:53:27;;;;;;;2.67;1.90;;;;;;;21.35;60.74;101682.34;6178884;28;20241;-48
2021/08/28 10:56:56;;;;;;;3.47;2.63;;;;;;;20.62;63.04;101681.63;6178198;28;20238;-51
2021/08/28 11:00:18;;;;;;;10.60;2.33;;;;;;;20.54;63.35;101683.69;6174825;28;20320;-49
2021/08/28 11:03:39;;;;;;;2.03;1.63;;;;;;;20.61;62.75;101682.56;6197558;28;20548;-47
2021/08/28 11:07:23;;;;;;;2.42;2.22;;;;;;;20.62;63.42;101686.94;6184891;28;20241;-54
2021/08/28 11:10:49;;;;;;;3.38;2.40;;;;;;;20.92;62.48;101689.34;6186443;28;20332;-50
2021/08/28 11:14:14;;;;;;;4.30;3.90;;;;;;;21.13;61.74;101692.06;6178366;28;20636;-52
2021/08/28 11:17:38;;;;;;;2.92;2.60;;;;;;;21.28;61.29;101688.81;6183638;28;20238;-50
2021/08/28 11:21:07;;;;;;;4.90;2.97;;;;;;;21.20;61.34;101690.91;6191879;28;20596;-53
2021/08/28 11:24:29;;;;;;;2.80;2.60;;;;;;;21.14;61.01;101692.00;6189812;28;20229;-53
2021/08/28 11:27:55;;;;;;;4.32;3.60;;;;;;;20.93;61.99;101693.72;6185357;28;20262;-50
2021/08/28 11:31:18;;;;;;;2.33;2.13;;;;;;;20.60;62.53;101691.41;6192509;28;20248;-53
2021/08/28 11:34:42;;;;;;;4.75;2.53;;;;;;;20.10;63.38;101702.00;6187372;28;20242;-53
2021/08/28 11:38:08;;;;;;;3.58;2.78;;;;;;;19.91;64.45;101701.81;6182685;28;20245;-54
2021/08/28 11:41:29;;;;;;;2.22;1.70;;;;;;;20.21;64.01;101693.72;6174327;28;20230;-49
2021/08/28 11:44:52;;;;;;;2.63;1.80;;;;;;;20.43;63.66;101691.16;6183480;28;20238;-50
2021/08/28 11:48:15;;;;;;;2.55;2.35;;;;;;;20.54;64.26;101686.31;6185286;28;20222;-52
2021/08/28 11:51:36;;;;;;;2.35;1.95;;;;;;;20.79;62.74;101691.59;6183459;28;20249;-51
2021/08/28 11:54:58;;;;;;;2.20;2.00;;;;;;;20.82;62.46;101695.91;6186344;28;20261;-53
2021/08/28 11:58:19;;;;;;;2.53;1.80;;;;;;;20.48;63.60;101693.66;6189785;28;20249;-50
2021/08/28 12:01:42;;;;;;;2.42;2.22;;;;;;;20.50;63.36;101697.94;6175475;28;20226;-58
2021/08/28 12:05:13;;;;;;;3.55;2.35;;;;;;;20.64;62.71;101695.66;6177957;28;20225;-58
2021/08/28 12:08:34;;;;;;;2.45;1.90;;;;;;;20.19;64.51;101704.34;6186212;28;20225;-59
2021/08/28 12:11:58;;;;;;;1.50;1.40;;;;;;;20.11;64.68;101709.03;6166271;28;20238;-58
2021/08/28 12:15:23;;;;;;;2.40;2.20;;;;;;;20.17;64.97;101707.97;6166655;28;20238;-60
2021/08/28 12:18:44;;;;;;;2.55;2.35;;;;;;;20.26;64.79;101707.66;6190470;28;20328;-61
2021/08/28 12:22:08;;;;;;;2.20;2.00;;;;;;;20.43;64.23;101705.25;6177858;28;20226;-60
2021/08/28 12:25:30;;;;;;;2.80;2.33;;;;;;;20.73;63.75;101701.56;6186666;28;20238;-59
2021/08/28 12:28:53;;;;;;;6.50;6.00;;;;;;;20.46;64.23;101710.41;6186034;28;20221;-58
2021/08/28 12:32:16;;;;;;;3.38;3.17;;;;;;;20.59;63.81;101697.66;6188656;28;20242;-60
2021/08/28 12:35:37;;;;;;;3.20;2.33;;;;;;;20.49;64.39;101709.47;6187694;28;20317;-57
2021/08/28 12:39:09;;;;;;;4.30;2.75;;;;;;;20.16;65.37;101707.09;6158201;28;20240;-58
2021/08/28 12:42:32;;;;;;;8.73;7.93;;;;;;;20.16;65.37;101707.09;6183682;28;20238;-58
2021/08/28 12:45:55;;;;;;;3.53;3.33;;;;;;;19.98;65.46;101718.31;6181582;28;20253;-57
2021/08/28 12:49:18;;;;;;;2.90;2.40;;;;;;;19.92;66.25;101714.09;6171648;28;20233;-59
2021/08/28 12:52:41;;;;;;;766.17;690.03;;;;;;;20.03;66.20;101711.09;6182558;28;20304;-54
2021/08/28 12:56:07;;;;;;;85.50;77.07;;;;;;;19.87;67.30;101710.72;6172598;28;20360;-50
2021/08/28 12:59:28;;;;;;;14.48;13.10;;;;;;;19.70;67.85;101710.38;6158965;28;20309;-48
2021/08/28 13:02:50;;;;;;;6.07;5.00;;;;;;;19.29;68.69;101702.91;6185921;28;20237;-52
2021/08/28 13:06:18;;;;;;;4.15;3.75;;;;;;;19.42;68.77;101704.22;6176440;28;22442;-47
2021/08/28 13:09:55;;;;;;;2.40;2.00;;;;;;;19.35;68.43;101701.84;6183882;28;20230;-49
2021/08/28 13:13:17;;;;;;;8.20;7.38;;;;;;;19.72;67.39;101704.19;6188928;28;20238;-55
2021/08/28 13:16:53;;;;;;;4.30;3.60;;;;;;;19.61;67.10;101695.72;6192796;28;20230;-52
2021/08/28 13:20:15;;;;;;;1.50;1.40;;;;;;;19.79;66.70;101708.38;6190973;28;20226;-54
2021/08/28 13:23:36;;;;;;;3.22;2.92;;;;;;;19.53;68.19;101703.03;6191921;28;20230;-52
2021/08/28 13:27:00;;;;;;;2.50;2.30;;;;;;;19.39;68.18;101699.06;6181952;28;20246;-51
2021/08/28 13:30:25;;;;;;;3.22;2.60;;;;;;;19.41;68.16;101701.66;6192023;28;20278;-49
2021/08/28 13:33:58;;;;;;;4.45;3.67;;;;;;;19.47;69.17;101697.03;6200563;28;20238;-49
2021/08/28 13:37:20;;;;;;;2.22;2.03;;;;;;;19.38;69.35;101699.09;6191913;28;20302;-50
2021/08/28 13:40:40;;;;;;;3.22;2.85;;;;;;;19.60;67.50;101701.91;6192038;28;20230;-52
2021/08/28 13:44:01;;;;;;;2.50;2.30;;;;;;;19.28;68.92;101696.75;6188527;28;20237;-50
2021/08/28 13:47:25;;;;;;;2.53;2.33;;;;;;;19.22;69.32;101702.22;6168918;28;20241;-53
2021/08/28 13:50:46;;;;;;;2.05;1.10;;;;;;;19.35;68.88;101696.56;6192659;28;20988;-48
2021/08/28 13:54:07;;;;;;;3.33;3.03;;;;;;;19.63;68.42;101701.81;6185737;28;20233;-52
2021/08/28 13:57:28;;;;;;;1.88;1.50;;;;;;;19.64;68.42;101691.19;6182377;28;20230;-50
2021/08/28 14:00:49;;;;;;;2.28;1.95;;;;;;;19.85;67.70;101689.66;6182825;28;20740;-51
2021/08/28 14:04:11;;;;;;;2.10;1.90;;;;;;;19.64;68.40;101695.63;6166857;28;20882;-52
2021/08/28 14:07:32;;;;;;;2.67;2.30;;;;;;;19.52;67.95;101685.44;6189815;28;20244;-52
2021/08/28 14:10:53;;;;;;;2.40;1.75;;;;;;;19.66;66.74;101685.88;6194311;28;20614;-51
2021/08/28 14:14:14;;;;;;;1.25;1.15;;;;;;;19.50;67.21;101684.63;6189594;28;20230;-49
2021/08/28 14:17:35;;;;;;;2.50;1.77;;;;;;;19.74;66.56;101685.66;6190606;28;20226;-48
2021/08/28 14:20:58;;;;;;;2.08;1.98;;;;;;;19.71;66.95;101689.22;6187380;28;20234;-54
2021/08/28 14:24:19;;;;;;;1.92;1.83;;;;;;;19.88;65.80;101679.91;6179718;28;20613;-54
2021/08/28 14:27:41;;;;;;;2.85;2.53;;;;;;;19.63;66.30;101688.59;6190895;28;20221;-50
2021/08/28 14:31:02;;;;;;;4.28;2.85;;;;;;;19.61;66.41;101691.28;6186021;28;20244;-50
2021/08/28 14:34:23;;;;;;;2.78;2.53;;;;;;;19.58;66.53;101688.78;6191083;28;20249;-47
2021/08/28 14:37:46;;;;;;;2.53;2.22;;;;;;;19.65;66.11;101690.28;6186860;28;20861;-48
2021/08/28 14:41:07;;;;;;;3.45;3.15;;;;;;;19.80;65.66;101686.28;6183978;28;20544;-49
2021/08/28 14:44:30;;;;;;;4.65;3.35;;;;;;;19.61;66.63;101686.00;6171762;28;20241;-50
2021/08/28 14:47:51;;;;;;;2.72;2.13;;;;;;;19.68;66.35;101691.97;6189751;28;20237;-51
2021/08/28 14:51:12;;;;;;;2.65;2.45;;;;;;;19.16;68.42;101683.09;6190295;28;20233;-53
2021/08/28 14:54:35;;;;;;;2.17;1.98;;;;;;;19.16;68.51;101691.00;6184377;28;20230;-48
2021/08/28 14:57:55;;;;;;;2.83;2.08;;;;;;;19.34;68.09;101698.34;6180217;28;20222;-48
2021/08/28 15:01:17;;;;;;;2.70;2.45;;;;;;;19.33;68.55;101695.72;6177051;28;20234;-47
2021/08/28 15:04:38;;;;;;;2.72;2.08;;;;;;;19.52;67.89;101703.94;6169688;28;20600;-48
2021/08/28 15:07:59;;;;;;;5.35;2.25;;;;;;;19.40;68.41;101706.06;6186778;28;20225;-49
2021/08/28 15:11:21;;;;;;;2.80;2.60;;;;;;;19.12;69.23;101697.31;6178247;28;20814;-48
2021/08/28 15:14:42;;;;;;;2.33;2.13;;;;;;;18.98;69.98;101695.94;6186782;28;20222;-47
2021/08/28 15:18:03;;;;;;;1.70;1.60;;;;;;;19.05;68.60;101699.25;6183755;28;20218;-50
2021/08/28 15:21:24;;;;;;;2.13;2.03;;;;;;;18.82;69.38;101697.28;6181831;28;20612;-47
2021/08/28 15:24:46;;;;;;;2.67;2.30;;;;;;;18.84;69.68;101703.38;6164263;28;20226;-51
2021/08/28 15:28:08;;;;;;;2.78;2.58;;;;;;;18.77;69.96;101701.81;6161850;28;20315;-51
2021/08/28 15:31:29;;;;;;;1.77;1.60;;;;;;;18.62;70.60;101696.06;6184564;28;20325;-50
2021/08/28 15:34:50;;;;;;;1.50;1.40;;;;;;;18.54;70.82;101702.47;6184417;28;20225;-48
2021/08/28 15:38:10;;;;;;;1.67;1.58;;;;;;;18.72;70.52;101701.94;6184992;28;20647;-46
2021/08/28 15:41:31;;;;;;;1.42;1.33;;;;;;;18.72;70.99;101701.09;6168821;28;20239;-46
2021/08/28 15:44:54;;;;;;;2.58;2.38;;;;;;;18.71;70.92;101700.22;6173841;28;20234;-47
2021/08/28 15:48:16;;;;;;;2.47;2.28;;;;;;;18.79;70.80;101700.88;6188166;28;20555;-50
2021/08/28 15:51:36;;;;;;;2.75;2.20;;;;;;;18.67;70.94;101709.16;6180279;28;20510;-53
2021/08/28 15:55:00;;;;;;;2.83;2.63;;;;;;;18.86;70.10;101704.19;6180415;28;20230;-51